Time;durP1;ratioP1;P1;durP2;ratioP2;P2;SDS_P1;SDS_P2;PMS_P1;PMS_P2;Temp;Humidity;BMP_temperature;BMP_pressure;BME280_temperature;BME280_humidity;BME280_pressure;Samples;Min_cycle;Max_cycle;Signal;HPM_P1;HPM_P2
2023/10/20 00:01:25;;;;;;;6.55;4.40;;;;;;;;;;10291771;28;20076;-66
2023/10/20 00:06:25;;;;;;;5.43;4.32;;;;;;;;;;10293232;28;20076;-66
2023/10/20 00:11:25;;;;;;;6.95;4.35;;;;;;;;;;10292790;28;20072;-66
2023/10/20 00:16:24;;;;;;;9.48;4.57;;;;;;;;;;10292580;28;20085;-67
2023/10/20 00:21:23;;;;;;;5.25;4.20;;;;;;;;;;10292255;28;20518;-67
2023/10/20 00:26:23;;;;;;;4.22;3.65;;;;;;;;;;10292729;28;20087;-66
2023/10/20 00:31:23;;;;;;;4.32;3.85;;;;;;;;;;10291621;28;20077;-67
2023/10/20 00:36:21;;;;;;;7.18;4.78;;;;;;;;;;10292583;28;20067;-67
2023/10/20 00:41:20;;;;;;;6.97;4.22;;;;;;;;;;10291777;28;20068;-67
2023/10/20 00:46:19;;;;;;;5.00;3.50;;;;;;;;;;10291995;28;20064;-67
2023/10/20 00:51:18;;;;;;;3.97;3.47;;;;;;;;;;10291911;28;20518;-67
2023/10/20 00:56:17;;;;;;;5.35;4.55;;;;;;;;;;10290985;28;20068;-66
2023/10/20 01:01:16;;;;;;;4.30;3.90;;;;;;;;;;10291007;28;20068;-65
2023/10/20 01:06:16;;;;;;;4.22;3.63;;;;;;;;;;10292417;28;20540;-66
2023/10/20 01:11:14;;;;;;;13.32;5.03;;;;;;;;;;10292610;28;20110;-66
2023/10/20 01:16:13;;;;;;;5.45;3.95;;;;;;;;;;10300046;28;20463;-66
2023/10/20 01:21:11;;;;;;;5.38;4.03;;;;;;;;;;10290391;28;20521;-65
2023/10/20 01:26:11;;;;;;;6.07;3.85;;;;;;;;;;10290432;28;20471;-67
2023/10/20 01:31:09;;;;;;;4.00;3.70;;;;;;;;;;10290112;28;20084;-66
2023/10/20 01:36:07;;;;;;;4.85;4.28;;;;;;;;;;10291410;28;20076;-66
2023/10/20 01:41:06;;;;;;;8.43;4.07;;;;;;;;;;10288666;28;20608;-65
2023/10/20 01:46:06;;;;;;;4.25;3.85;;;;;;;;;;10288855;28;20063;-66
2023/10/20 01:51:04;;;;;;;5.63;4.03;;;;;;;;;;10295819;28;20072;-67
2023/10/20 01:56:02;;;;;;;3.67;3.38;;;;;;;;;;10288267;28;20045;-66
2023/10/20 02:01:02;;;;;;;4.85;3.65;;;;;;;;;;10273449;28;20080;-66
2023/10/20 02:06:03;;;;;;;7.18;4.90;;;;;;;;;;10288957;28;20082;-66
2023/10/20 02:11:02;;;;;;;5.05;4.10;;;;;;;;;;10298189;28;20080;-65
2023/10/20 02:16:01;;;;;;;4.15;3.63;;;;;;;;;;10290486;28;20099;-67
2023/10/20 02:20:59;;;;;;;6.57;3.72;;;;;;;;;;10295735;28;20497;-65
2023/10/20 02:26:00;;;;;;;4.30;3.90;;;;;;;;;;10285475;28;20087;-67
2023/10/20 02:31:00;;;;;;;4.20;3.85;;;;;;;;;;10290203;28;20081;-66
2023/10/20 02:35:58;;;;;;;4.40;4.00;;;;;;;;;;10288947;28;20135;-67
2023/10/20 02:40:56;;;;;;;3.80;3.50;;;;;;;;;;10288240;28;20088;-66
2023/10/20 02:45:56;;;;;;;5.00;4.07;;;;;;;;;;10285740;28;20505;-67
2023/10/20 02:50:54;;;;;;;4.50;3.67;;;;;;;;;;10287217;28;20071;-66
2023/10/20 02:55:52;;;;;;;6.63;4.00;;;;;;;;;;10293496;28;20077;-67
2023/10/20 03:00:52;;;;;;;9.18;3.65;;;;;;;;;;10287791;28;20077;-67
2023/10/20 03:05:52;;;;;;;4.00;3.60;;;;;;;;;;10287829;28;20072;-66
2023/10/20 03:10:50;;;;;;;6.43;3.83;;;;;;;;;;10286372;28;20064;-67
2023/10/20 03:15:49;;;;;;;7.20;3.92;;;;;;;;;;10295617;28;20078;-66
2023/10/20 03:20:47;;;;;;;3.72;3.38;;;;;;;;;;10285878;28;20510;-67
2023/10/20 03:25:47;;;;;;;6.10;4.15;;;;;;;;;;10286118;28;20071;-67
2023/10/20 03:30:46;;;;;;;6.63;4.20;;;;;;;;;;10286503;28;20072;-67
2023/10/20 03:35:49;;;;;;;4.55;3.63;;;;;;;;;;10289139;28;20080;-67
2023/10/20 03:40:48;;;;;;;4.40;3.58;;;;;;;;;;10295672;28;20087;-67
2023/10/20 03:45:49;;;;;;;5.05;3.40;;;;;;;;;;10294875;28;20075;-67
2023/10/20 03:50:48;;;;;;;5.70;3.88;;;;;;;;;;10291956;28;20073;-67
2023/10/20 03:55:57;;;;;;;3.85;3.40;;;;;;;;;;10293909;28;20084;-67
2023/10/20 04:00:55;;;;;;;4.22;3.67;;;;;;;;;;10294130;28;20482;-67
2023/10/20 04:05:53;;;;;;;7.68;3.42;;;;;;;;;;10294861;28;20072;-68
2023/10/20 04:10:58;;;;;;;11.55;3.47;;;;;;;;;;10292160;28;20095;-66
2023/10/20 04:15:56;;;;;;;;;;;;;;;;;;10293926;28;20083;-67
2023/10/20 04:20:57;;;;;;;3.42;3.13;;;;;;;;;;10287924;28;19960;-67
2023/10/20 04:25:56;;;;;;;6.13;4.53;;;;;;;;;;10290384;28;20088;-66
2023/10/20 04:47:35;;;;;;;6.28;3.80;;;;;;;;;;10299644;28;20056;-66
2023/10/20 04:52:53;;;;;;;4.38;3.85;;;;;;;;;;10290898;28;20069;-66
2023/10/20 04:57:53;;;;;;;5.15;3.53;;;;;;;;;;10290721;28;20065;-66
2023/10/20 05:03:12;;;;;;;;;;;;;;;;;;10275981;28;20084;-67
2023/10/20 05:08:17;;;;;;;7.78;3.63;;;;;;;;;;10291897;28;19959;-66
2023/10/20 05:13:16;;;;;;;5.90;4.43;;;;;;;;;;10289170;28;20084;-67
2023/10/20 05:18:14;;;;;;;9.85;4.47;;;;;;;;;;10289253;28;20470;-67
2023/10/20 05:23:15;;;;;;;6.15;3.50;;;;;;;;;;10287295;28;20087;-67
2023/10/20 05:28:15;;;;;;;5.93;3.72;;;;;;;;;;10290480;28;20088;-67
2023/10/20 05:33:15;;;;;;;4.55;3.90;;;;;;;;;;10293337;28;20075;-67
2023/10/20 05:38:14;;;;;;;6.20;4.07;;;;;;;;;;10291753;28;20076;-67
2023/10/20 05:43:13;;;;;;;4.18;3.78;;;;;;;;;;10289161;28;20079;-67
2023/10/20 05:48:12;;;;;;;6.90;4.13;;;;;;;;;;10293004;28;20057;-67
2023/10/20 05:53:11;;;;;;;6.40;3.83;;;;;;;;;;10286829;28;20068;-66
2023/10/20 05:58:11;;;;;;;6.15;3.45;;;;;;;;;;10287464;28;20466;-68
2023/10/20 06:03:11;;;;;;;10.68;4.75;;;;;;;;;;10290343;28;20073;-67
2023/10/20 06:08:09;;;;;;;17.65;6.75;;;;;;;;;;10292242;28;20072;-66
2023/10/20 06:13:08;;;;;;;11.43;6.18;;;;;;;;;;10290989;28;20084;-65
2023/10/20 06:18:09;;;;;;;8.02;6.55;;;;;;;;;;10286693;28;20095;-67
2023/10/20 06:23:22;;;;;;;23.90;7.55;;;;;;;;;;10286252;28;20552;-67
2023/10/20 06:28:20;;;;;;;19.20;8.98;;;;;;;;;;10288504;28;20064;-67
2023/10/20 06:33:20;;;;;;;16.33;7.00;;;;;;;;;;10286260;28;20076;-65
2023/10/20 06:38:21;;;;;;;13.98;6.55;;;;;;;;;;10290434;28;20084;-66
2023/10/20 06:43:20;;;;;;;17.40;6.90;;;;;;;;;;10287222;28;20755;-66
2023/10/20 06:48:20;;;;;;;13.60;5.93;;;;;;;;;;10286928;28;20068;-67
2023/10/20 06:53:19;;;;;;;13.68;5.97;;;;;;;;;;10288814;28;20072;-67
2023/10/20 06:58:18;;;;;;;9.57;6.43;;;;;;;;;;10286925;28;20107;-66
2023/10/20 07:03:16;;;;;;;10.68;5.60;;;;;;;;;;10288872;28;20099;-66
2023/10/20 07:08:16;;;;;;;8.10;6.10;;;;;;;;;;10288947;28;20110;-66
2023/10/20 07:13:17;;;;;;;14.70;5.13;;;;;;;;;;10285010;28;20080;-66
2023/10/20 07:18:15;;;;;;;14.43;7.22;;;;;;;;;;10289570;28;20076;-67
2023/10/20 07:23:17;;;;;;;9.32;5.05;;;;;;;;;;10269465;28;20510;-67
2023/10/20 07:28:16;;;;;;;14.85;5.97;;;;;;;;;;10284718;28;20513;-66
2023/10/20 07:33:14;;;;;;;12.73;6.00;;;;;;;;;;10288961;28;20072;-67
2023/10/20 07:38:13;;;;;;;9.02;5.68;;;;;;;;;;10271501;28;20511;-66
2023/10/20 07:43:13;;;;;;;15.95;6.00;;;;;;;;;;10287010;28;20072;-67
2023/10/20 07:48:11;;;;;;;10.32;6.07;;;;;;;;;;10287958;28;20068;-67
2023/10/20 07:53:09;;;;;;;12.10;5.75;;;;;;;;;;10290643;28;20083;-67
2023/10/20 07:58:08;;;;;;;13.90;5.88;;;;;;;;;;10282417;28;20081;-67
2023/10/20 08:03:11;;;;;;;11.05;7.63;;;;;;;;;;10281515;28;20076;-66
2023/10/20 08:08:09;;;;;;;25.42;8.13;;;;;;;;;;10270618;28;20278;-66
2023/10/20 08:13:09;;;;;;;29.08;8.15;;;;;;;;;;10281743;28;20482;-67
2023/10/20 08:18:10;;;;;;;16.52;7.28;;;;;;;;;;10282172;28;20510;-66
2023/10/20 08:23:08;;;;;;;23.08;7.38;;;;;;;;;;10292964;28;20083;-66
2023/10/20 08:28:07;;;;;;;12.63;6.70;;;;;;;;;;10295065;28;20475;-66
2023/10/20 08:33:06;;;;;;;15.63;6.50;;;;;;;;;;10290834;28;20072;-66
2023/10/20 08:38:07;;;;;;;13.32;7.00;;;;;;;;;;10282619;28;20068;-66
2023/10/20 08:43:05;;;;;;;20.52;6.40;;;;;;;;;;10292249;28;20069;-66
2023/10/20 08:48:03;;;;;;;14.52;6.63;;;;;;;;;;10267700;28;20151;-66
2023/10/20 08:53:04;;;;;;;14.68;7.22;;;;;;;;;;10288996;28;20083;-67
2023/10/20 08:58:07;;;;;;;14.35;6.72;;;;;;;;;;10285384;28;20545;-66
2023/10/20 09:03:05;;;;;;;12.50;6.20;;;;;;;;;;10289222;28;20076;-67
2023/10/20 09:08:04;;;;;;;12.25;6.28;;;;;;;;;;10291923;28;20075;-67
2023/10/20 09:13:02;;;;;;;11.68;4.70;;;;;;;;;;10294206;28;20516;-67
2023/10/20 09:18:02;;;;;;;6.57;4.47;;;;;;;;;;10290396;28;20083;-67
2023/10/20 09:23:08;;;;;;;7.63;4.10;;;;;;;;;;10293206;28;20060;-67
2023/10/20 09:28:10;;;;;;;9.25;4.13;;;;;;;;;;10290482;28;20067;-67
2023/10/20 09:33:11;;;;;;;5.88;4.40;;;;;;;;;;10288974;28;20519;-67
2023/10/20 09:38:11;;;;;;;8.10;4.32;;;;;;;;;;10290053;28;20069;-67
2023/10/20 09:43:13;;;;;;;7.30;4.25;;;;;;;;;;10289121;28;20072;-67
2023/10/20 09:48:25;;;;;;;5.85;3.80;;;;;;;;;;10290367;28;20068;-67
2023/10/20 09:53:24;;;;;;;10.27;4.47;;;;;;;;;;10291950;28;20064;-67
2023/10/20 09:58:26;;;;;;;5.13;3.33;;;;;;;;;;10287471;28;20132;-67
2023/10/20 10:03:37;;;;;;;12.85;4.30;;;;;;;;;;10288302;28;20110;-67
2023/10/20 10:08:38;;;;;;;7.38;3.63;;;;;;;;;;10289458;28;20087;-66
2023/10/20 10:13:40;;;;;;;10.93;4.13;;;;;;;;;;10288145;28;20080;-67
2023/10/20 10:18:46;;;;;;;15.13;3.25;;;;;;;;;;10290649;28;20068;-67
2023/10/20 10:24:03;;;;;;;14.88;3.95;;;;;;;;;;10290143;28;20454;-66
2023/10/20 10:29:01;;;;;;;9.10;3.70;;;;;;;;;;10287634;28;20094;-67
2023/10/20 10:34:04;;;;;;;7.28;3.75;;;;;;;;;;10289665;28;20515;-67
2023/10/20 10:39:03;;;;;;;11.88;4.65;;;;;;;;;;10288584;28;20548;-66
2023/10/20 10:44:03;;;;;;;11.57;3.92;;;;;;;;;;10289046;28;20080;-66
2023/10/20 10:49:07;;;;;;;10.18;4.53;;;;;;;;;;10285972;28;20071;-68
2023/10/20 10:54:05;;;;;;;12.60;4.25;;;;;;;;;;10289883;28;20087;-67
2023/10/20 10:59:04;;;;;;;12.43;3.80;;;;;;;;;;10286172;28;20084;-67
2023/10/20 11:04:02;;;;;;;11.98;4.53;;;;;;;;;;10288743;28;20068;-66
2023/10/20 11:09:03;;;;;;;11.30;4.65;;;;;;;;;;10289640;28;20443;-67
2023/10/20 11:14:01;;;;;;;10.43;4.25;;;;;;;;;;10288013;28;20486;-66
2023/10/20 11:19:01;;;;;;;6.65;4.70;;;;;;;;;;10286721;28;20087;-66
2023/10/20 11:23:59;;;;;;;16.17;4.40;;;;;;;;;;10286054;28;20072;-67
2023/10/20 11:29:01;;;;;;;9.48;4.90;;;;;;;;;;10288635;28;20455;-66
2023/10/20 11:34:00;;;;;;;11.75;4.18;;;;;;;;;;10287987;28;20071;-66
2023/10/20 11:38:58;;;;;;;6.38;4.10;;;;;;;;;;10282720;28;20072;-67
2023/10/20 11:43:56;;;;;;;8.40;3.85;;;;;;;;;;10272236;28;20107;-67
2023/10/20 11:48:56;;;;;;;11.00;3.92;;;;;;;;;;10279174;28;20071;-67
2023/10/20 11:53:55;;;;;;;11.15;4.15;;;;;;;;;;10265070;28;20080;-67
2023/10/20 11:58:53;;;;;;;16.00;4.13;;;;;;;;;;10278502;28;20579;-66
2023/10/20 12:03:51;;;;;;;15.48;4.45;;;;;;;;;;10295683;28;20068;-66
2023/10/20 12:08:51;;;;;;;10.27;5.10;;;;;;;;;;10290971;28;20068;-65
2023/10/20 12:13:50;;;;;;;11.00;5.15;;;;;;;;;;10291834;28;20088;-67
2023/10/20 12:18:48;;;;;;;12.98;4.50;;;;;;;;;;10284112;28;20471;-68
2023/10/20 12:23:47;;;;;;;10.32;4.68;;;;;;;;;;10289607;28;20068;-67
2023/10/20 12:28:46;;;;;;;11.20;4.90;;;;;;;;;;10286999;28;20072;-66
2023/10/20 12:33:45;;;;;;;11.90;5.03;;;;;;;;;;10285276;28;20087;-67
2023/10/20 12:38:43;;;;;;;19.27;5.70;;;;;;;;;;10281167;28;20362;-65
2023/10/20 12:43:42;;;;;;;18.38;5.72;;;;;;;;;;10287484;28;20501;-65
2023/10/20 12:48:43;;;;;;;12.50;5.70;;;;;;;;;;10288945;28;20084;-66
2023/10/20 12:53:41;;;;;;;16.73;7.07;;;;;;;;;;10286851;28;20088;-66
2023/10/20 12:58:39;;;;;;;8.85;5.50;;;;;;;;;;10291640;28;20068;-66
2023/10/20 13:03:38;;;;;;;14.38;6.00;;;;;;;;;;10290148;28;20068;-66
2023/10/20 13:08:38;;;;;;;11.20;5.60;;;;;;;;;;10289214;28;20080;-67
2023/10/20 13:13:37;;;;;;;20.30;5.88;;;;;;;;;;10290114;28;20521;-65
2023/10/20 13:18:35;;;;;;;12.30;5.40;;;;;;;;;;10290239;28;20108;-66
2023/10/20 13:23:33;;;;;;;12.20;5.32;;;;;;;;;;10285498;28;20075;-66
2023/10/20 13:28:33;;;;;;;12.85;5.18;;;;;;;;;;10276545;28;20115;-67
2023/10/20 13:33:32;;;;;;;8.30;4.40;;;;;;;;;;10288696;28;20131;-65
2023/10/20 13:38:31;;;;;;;20.13;5.50;;;;;;;;;;10277039;28;20671;-65
2023/10/20 13:43:30;;;;;;;10.48;4.85;;;;;;;;;;10278020;28;20471;-66
2023/10/20 13:48:29;;;;;;;20.95;6.55;;;;;;;;;;10277339;28;20068;-65
2023/10/20 13:53:28;;;;;;;14.27;5.30;;;;;;;;;;10285162;28;20068;-66
2023/10/20 13:58:26;;;;;;;12.00;6.07;;;;;;;;;;10283403;28;20068;-66
2023/10/20 14:03:25;;;;;;;17.27;6.00;;;;;;;;;;10282674;28;20072;-66
2023/10/20 14:08:25;;;;;;;10.57;5.78;;;;;;;;;;10283140;28;20083;-66
2023/10/20 14:13:24;;;;;;;10.23;5.25;;;;;;;;;;10281861;28;20471;-67
2023/10/20 14:18:22;;;;;;;18.00;5.13;;;;;;;;;;10285044;28;20072;-66
2023/10/20 14:23:22;;;;;;;21.67;6.50;;;;;;;;;;10279842;28;20060;-66
2023/10/20 14:28:21;;;;;;;13.95;5.72;;;;;;;;;;10280521;28;20092;-66
2023/10/20 14:33:20;;;;;;;17.77;5.70;;;;;;;;;;10287332;28;20068;-67
2023/10/20 14:38:18;;;;;;;16.63;5.97;;;;;;;;;;10287600;28;20065;-66
2023/10/20 14:43:16;;;;;;;16.40;6.15;;;;;;;;;;10270177;28;20073;-65
2023/10/20 14:48:16;;;;;;;14.73;5.70;;;;;;;;;;10278099;28;20072;-67
2023/10/20 14:53:14;;;;;;;13.38;7.10;;;;;;;;;;10284810;28;20503;-67
2023/10/20 14:58:12;;;;;;;18.35;5.82;;;;;;;;;;10284706;28;20084;-67
2023/10/20 15:03:10;;;;;;;20.55;6.97;;;;;;;;;;10287572;28;20906;-67
2023/10/20 15:08:11;;;;;;;27.80;6.50;;;;;;;;;;10274438;28;20075;-65
2023/10/20 15:13:09;;;;;;;13.20;5.55;;;;;;;;;;10277962;28;20076;-66
2023/10/20 15:18:07;;;;;;;13.65;5.78;;;;;;;;;;10277470;28;20085;-66
2023/10/20 15:23:06;;;;;;;28.05;6.57;;;;;;;;;;10285194;28;20079;-66
2023/10/20 15:28:16;;;;;;;16.50;6.47;;;;;;;;;;10279551;28;20518;-66
2023/10/20 15:33:14;;;;;;;12.18;6.28;;;;;;;;;;10288409;28;20072;-67
2023/10/20 15:38:17;;;;;;;17.50;6.43;;;;;;;;;;10296076;28;20099;-67
2023/10/20 15:43:17;;;;;;;13.32;6.85;;;;;;;;;;10286971;28;20065;-67
2023/10/20 15:48:15;;;;;;;9.13;6.38;;;;;;;;;;10289800;28;20103;-67
2023/10/20 15:53:13;;;;;;;15.75;6.57;;;;;;;;;;10280278;28;20517;-66
2023/10/20 15:58:15;;;;;;;16.45;6.50;;;;;;;;;;10292830;28;20083;-66
2023/10/20 16:03:14;;;;;;;19.48;6.50;;;;;;;;;;10290714;28;20564;-65
2023/10/20 16:08:17;;;;;;;17.73;9.00;;;;;;;;;;10289456;28;20068;-66
2023/10/20 16:13:15;;;;;;;17.80;7.72;;;;;;;;;;10287234;28;20076;-67
2023/10/20 16:18:15;;;;;;;11.85;6.88;;;;;;;;;;10290321;28;20529;-65
2023/10/20 16:23:13;;;;;;;41.17;20.08;;;;;;;;;;10292782;28;20076;-66
2023/10/20 16:28:12;;;;;;;42.10;26.45;;;;;;;;;;10288073;28;20084;-66
2023/10/20 16:33:10;;;;;;;61.45;35.53;;;;;;;;;;10290395;28;20174;-66
2023/10/20 16:38:10;;;;;;;50.67;30.00;;;;;;;;;;10290431;28;20495;-66
2023/10/20 16:43:09;;;;;;;55.88;28.65;;;;;;;;;;10284277;28;20478;-65
2023/10/20 16:48:07;;;;;;;26.60;12.57;;;;;;;;;;10286760;28;20517;-65
2023/10/20 16:53:05;;;;;;;14.18;7.78;;;;;;;;;;10278569;28;20106;-65
2023/10/20 16:58:06;;;;;;;17.10;6.07;;;;;;;;;;10280220;28;20060;-67
2023/10/20 17:03:05;;;;;;;17.80;6.55;;;;;;;;;;10280108;28;20110;-66
2023/10/20 17:08:04;;;;;;;12.88;5.03;;;;;;;;;;10282697;28;20076;-65
2023/10/20 17:13:02;;;;;;;10.77;5.50;;;;;;;;;;10284069;28;20391;-65
2023/10/20 17:18:05;;;;;;;14.38;5.80;;;;;;;;;;10283319;28;20064;-66
2023/10/20 17:23:04;;;;;;;13.83;5.80;;;;;;;;;;10283217;28;20561;-65
2023/10/20 17:28:02;;;;;;;16.02;8.10;;;;;;;;;;10287613;28;20065;-67
2023/10/20 17:33:03;;;;;;;25.92;8.60;;;;;;;;;;10285120;28;20065;-66
2023/10/20 17:38:02;;;;;;;22.05;7.78;;;;;;;;;;10288764;28;20064;-66
2023/10/20 17:43:00;;;;;;;15.43;6.03;;;;;;;;;;10291108;28;20435;-66
2023/10/20 17:47:58;;;;;;;16.15;5.55;;;;;;;;;;10289436;28;20076;-66
2023/10/20 17:52:59;;;;;;;17.10;5.93;;;;;;;;;;10292021;28;20474;-66
2023/10/20 17:57:57;;;;;;;12.65;5.00;;;;;;;;;;10289012;28;20087;-65
2023/10/20 18:02:55;;;;;;;13.98;5.40;;;;;;;;;;10288352;28;20568;-67
2023/10/20 18:07:54;;;;;;;18.60;6.15;;;;;;;;;;10293067;28;20087;-65
2023/10/20 18:12:56;;;;;;;11.13;5.57;;;;;;;;;;10287708;28;20454;-66
2023/10/20 18:17:55;;;;;;;13.02;5.50;;;;;;;;;;10287924;28;20071;-66
2023/10/20 18:22:53;;;;;;;12.10;5.13;;;;;;;;;;10290372;28;20080;-66
2023/10/20 18:27:51;;;;;;;12.77;5.28;;;;;;;;;;10289399;28;20069;-66
2023/10/20 18:32:51;;;;;;;15.77;4.75;;;;;;;;;;10289261;28;20075;-66
2023/10/20 18:37:49;;;;;;;12.88;4.63;;;;;;;;;;10287806;28;20075;-66
2023/10/20 18:42:49;;;;;;;9.88;4.13;;;;;;;;;;10287372;28;20072;-66
2023/10/20 18:47:47;;;;;;;13.25;4.60;;;;;;;;;;10282859;28;20084;-65
2023/10/20 18:52:47;;;;;;;8.82;4.03;;;;;;;;;;10287850;28;20122;-67
2023/10/20 18:57:46;;;;;;;12.98;4.13;;;;;;;;;;10290629;28;20537;-66
2023/10/20 19:02:46;;;;;;;15.15;4.63;;;;;;;;;;10289443;28;20068;-66
2023/10/20 19:07:45;;;;;;;13.00;4.38;;;;;;;;;;10286861;28;20068;-67
2023/10/20 19:12:45;;;;;;;19.42;5.15;;;;;;;;;;10286643;28;20083;-66
2023/10/20 19:17:44;;;;;;;17.80;4.15;;;;;;;;;;10283302;28;20072;-66
2023/10/20 19:22:42;;;;;;;12.25;4.40;;;;;;;;;;10285659;28;20068;-66
2023/10/20 19:27:40;;;;;;;9.80;4.57;;;;;;;;;;10288974;28;20083;-66
2023/10/20 19:32:40;;;;;;;11.07;3.85;;;;;;;;;;10295122;28;20076;-67
2023/10/20 19:37:38;;;;;;;10.77;4.47;;;;;;;;;;10286258;28;20478;-67
2023/10/20 19:42:42;;;;;;;13.65;4.47;;;;;;;;;;10288367;28;20072;-67
2023/10/20 19:47:43;;;;;;;9.57;4.20;;;;;;;;;;10284853;28;20486;-67
2023/10/20 19:52:41;;;;;;;10.98;4.53;;;;;;;;;;10284994;28;20503;-67
2023/10/20 19:57:41;;;;;;;12.35;4.47;;;;;;;;;;10285604;28;20080;-67
2023/10/20 20:02:40;;;;;;;10.05;4.18;;;;;;;;;;10287516;28;20625;-66
2023/10/20 20:07:40;;;;;;;12.48;4.40;;;;;;;;;;10288874;28;20072;-67
2023/10/20 20:12:39;;;;;;;11.93;3.88;;;;;;;;;;10285468;28;20087;-66
2023/10/20 20:17:38;;;;;;;12.52;4.32;;;;;;;;;;10286661;28;20072;-66
2023/10/20 20:22:36;;;;;;;10.90;4.07;;;;;;;;;;10296810;28;20076;-66
2023/10/20 20:27:36;;;;;;;7.70;3.80;;;;;;;;;;10293963;28;20459;-66
2023/10/20 20:32:34;;;;;;;10.10;4.43;;;;;;;;;;10294531;28;20064;-66
2023/10/20 20:37:32;;;;;;;15.23;4.00;;;;;;;;;;10290512;28;20068;-66
2023/10/20 20:42:31;;;;;;;12.30;4.15;;;;;;;;;;10296738;28;20060;-66
2023/10/20 20:47:30;;;;;;;9.63;3.63;;;;;;;;;;10292913;28;20470;-66
2023/10/20 20:52:28;;;;;;;12.73;4.18;;;;;;;;;;10292536;28;20068;-66
2023/10/20 20:57:27;;;;;;;20.70;4.57;;;;;;;;;;10294430;28;20553;-67
2023/10/20 21:02:25;;;;;;;12.48;4.03;;;;;;;;;;10295290;28;20064;-66
2023/10/20 21:07:25;;;;;;;14.65;3.92;;;;;;;;;;10292055;28;20495;-67
2023/10/20 21:12:23;;;;;;;11.52;5.00;;;;;;;;;;10293172;28;20455;-66
2023/10/20 21:17:21;;;;;;;8.88;4.32;;;;;;;;;;10287848;28;20443;-66
2023/10/20 21:22:20;;;;;;;8.43;4.28;;;;;;;;;;10292669;28;20065;-67
2023/10/20 21:27:20;;;;;;;9.10;3.95;;;;;;;;;;10290806;28;20069;-67
2023/10/20 21:32:18;;;;;;;10.30;4.10;;;;;;;;;;10288589;28;20077;-67
2023/10/20 21:37:17;;;;;;;11.13;3.83;;;;;;;;;;10289337;28;20752;-67
2023/10/20 21:42:15;;;;;;;9.25;4.35;;;;;;;;;;10293643;28;20473;-67
2023/10/20 21:47:15;;;;;;;10.98;4.45;;;;;;;;;;10290138;28;20071;-67
2023/10/20 21:52:13;;;;;;;6.68;4.47;;;;;;;;;;10289331;28;20076;-67
2023/10/20 21:57:11;;;;;;;12.45;4.22;;;;;;;;;;10290580;28;20068;-67
2023/10/20 22:02:10;;;;;;;12.82;3.95;;;;;;;;;;10291758;28;20077;-67
2023/10/20 22:07:09;;;;;;;9.70;3.72;;;;;;;;;;10290928;28;20080;-66
2023/10/20 22:12:08;;;;;;;11.35;3.55;;;;;;;;;;10286779;28;20080;-66
2023/10/20 22:17:06;;;;;;;8.25;3.95;;;;;;;;;;10290155;28;20080;-67
2023/10/20 22:22:04;;;;;;;8.77;3.92;;;;;;;;;;10282836;28;20064;-66
2023/10/20 22:27:05;;;;;;;10.88;4.32;;;;;;;;;;10283263;28;20114;-66
2023/10/20 22:32:03;;;;;;;11.00;3.63;;;;;;;;;;10286107;28;20075;-66
2023/10/20 22:37:02;;;;;;;7.88;3.97;;;;;;;;;;10270052;28;20072;-67
2023/10/20 22:42:00;;;;;;;12.80;4.50;;;;;;;;;;10286721;28;20517;-66
2023/10/20 22:47:00;;;;;;;5.63;3.65;;;;;;;;;;10286499;28;20064;-66
2023/10/20 22:51:58;;;;;;;14.38;3.72;;;;;;;;;;10284863;28;20103;-66
2023/10/20 22:56:56;;;;;;;13.85;4.43;;;;;;;;;;10288867;28;20304;-66
2023/10/20 23:01:54;;;;;;;8.70;3.80;;;;;;;;;;10290536;28;20072;-66
2023/10/20 23:06:54;;;;;;;17.63;4.25;;;;;;;;;;10290492;28;20068;-67
2023/10/20 23:11:52;;;;;;;12.90;3.60;;;;;;;;;;10287498;28;20076;-65
2023/10/20 23:16:52;;;;;;;15.63;4.25;;;;;;;;;;10288374;28;20447;-66
2023/10/20 23:21:50;;;;;;;9.63;3.83;;;;;;;;;;10287560;28;20072;-66
2023/10/20 23:26:49;;;;;;;10.95;3.50;;;;;;;;;;10288697;28;20088;-67
2023/10/20 23:31:48;;;;;;;10.18;4.03;;;;;;;;;;10285565;28;20202;-65
2023/10/20 23:36:46;;;;;;;7.65;3.78;;;;;;;;;;10289781;28;20069;-66
2023/10/20 23:41:44;;;;;;;9.30;3.67;;;;;;;;;;10288248;28;20079;-65
2023/10/20 23:46:44;;;;;;;14.25;4.38;;;;;;;;;;10285493;28;20111;-65
2023/10/20 23:51:42;;;;;;;10.10;3.25;;;;;;;;;;10287752;28;20072;-66
2023/10/20 23:56:40;;;;;;;13.73;3.80;;;;;;;;;;10294786;28;20708;-66
